createdAt,value
2019-05-09T00:27:23.885Z,4.40
2019-05-09T00:41:39.966Z,4.10
2019-05-09T01:10:25.250Z,4.57
2019-05-09T01:32:07.743Z,4.30
2019-05-09T01:37:09.704Z,4.23
2019-05-09T01:59:57.219Z,4.53
2019-05-09T02:05:39.527Z,4.23
2019-05-09T02:10:58.704Z,4.93
2019-05-09T02:16:48.715Z,5.23
2019-05-09T02:22:54.285Z,4.63
2019-05-09T02:37:58.891Z,4.40
2019-05-09T03:29:35.436Z,3.77
2019-05-09T03:38:17.905Z,2.70
2019-05-09T03:51:58.612Z,3.67
2019-05-09T04:57:51.293Z,3.50
2019-05-09T05:30:10.372Z,3.98
2019-05-09T05:43:40.536Z,4.77
2019-05-09T05:49:39.887Z,4.60
2019-05-09T05:56:28.829Z,4.07
2019-05-09T06:13:07.963Z,4.22
2019-05-09T06:15:41.639Z,4.37
2019-05-09T06:18:24.513Z,4.72
2019-05-09T06:20:58.452Z,4.10
2019-05-09T06:27:28.113Z,3.90
2019-05-09T06:30:01.067Z,5.72
2019-05-09T06:32:35.103Z,3.95
2019-05-09T06:45:48.652Z,4.70
2019-05-09T06:48:22.588Z,5.35
2019-05-09T06:54:48.718Z,4.67
2019-05-09T06:57:20.030Z,4.47
2019-05-09T06:59:57.891Z,5.20
2019-05-09T07:02:51.340Z,4.70
2019-05-09T07:05:29.097Z,4.87
2019-05-09T07:08:11.720Z,5.20
2019-05-09T07:10:45.387Z,5.10
2019-05-09T07:13:23.227Z,5.08
2019-05-09T07:15:54.429Z,4.08
2019-05-09T07:18:27.751Z,5.33
2019-05-09T07:21:00.628Z,5.40
2019-05-09T07:23:33.284Z,5.15
2019-05-09T07:26:17.684Z,5.22
2019-05-09T07:28:49.394Z,5.53
2019-05-09T07:31:22.142Z,4.72
2019-05-09T07:33:58.752Z,5.95
2019-05-09T07:36:30.105Z,4.85
2019-05-09T07:39:02.961Z,5.30
2019-05-09T07:41:39.447Z,4.83
2019-05-09T07:44:10.636Z,4.60
2019-05-09T07:46:43.329Z,5.28
2019-05-09T07:49:14.565Z,5.17
2019-05-09T07:51:47.635Z,4.58
2019-05-09T07:54:25.212Z,5.25
2019-05-09T07:56:52.768Z,5.30
2019-05-09T07:59:23.865Z,4.72
2019-05-09T08:01:54.909Z,5.00
2019-05-09T08:04:28.562Z,5.58
2019-05-09T08:07:02.899Z,5.28
2019-05-09T08:09:34.063Z,6.08
2019-05-09T08:12:07.370Z,6.00
2019-05-09T08:14:39.645Z,5.87
2019-05-09T08:17:18.246Z,5.70
2019-05-09T08:19:53.200Z,3.52
2019-05-09T08:22:31.806Z,3.42
2019-05-09T08:25:08.233Z,4.35
2019-05-09T08:27:38.770Z,5.42
2019-05-09T08:55:57.886Z,4.97
2019-05-09T09:02:21.864Z,4.78
2019-05-09T09:08:02.657Z,5.40
2019-05-09T09:34:31.981Z,4.50
2019-05-09T09:40:47.591Z,4.72
2019-05-09T09:50:38.410Z,5.15
2019-05-09T09:53:34.003Z,5.67
2019-05-09T09:56:05.135Z,5.22
2019-05-09T09:58:38.980Z,4.12
2019-05-09T10:01:11.825Z,4.97
2019-05-09T10:04:20.797Z,5.03
2019-05-09T10:06:58.236Z,5.12
2019-05-09T10:09:33.883Z,6.22
2019-05-09T10:12:18.051Z,5.45
2019-05-09T10:18:47.529Z,5.95
2019-05-09T10:29:57.795Z,5.70
2019-05-09T10:32:33.745Z,7.17
2019-05-09T10:50:43.141Z,5.22
2019-05-09T10:57:53.589Z,5.65
2019-05-09T11:15:13.108Z,5.75
2019-05-09T11:18:08.379Z,5.95
2019-05-09T11:24:46.564Z,4.80
2019-05-09T11:27:22.801Z,6.30
2019-05-09T11:33:34.922Z,6.05
2019-05-09T11:36:09.720Z,6.20
2019-05-09T11:42:38.955Z,4.70
2019-05-09T11:49:08.192Z,6.40
2019-05-09T11:55:27.479Z,7.10
2019-05-09T12:05:13.204Z,8.28
2019-05-09T12:07:42.427Z,7.90
2019-05-09T12:13:26.743Z,8.38
2019-05-09T12:16:01.186Z,8.38
2019-05-09T12:19:03.606Z,8.05
2019-05-09T12:21:19.629Z,9.98
2019-05-09T12:23:53.545Z,8.70
2019-05-09T12:26:24.613Z,9.50
2019-05-09T12:28:57.775Z,9.43
2019-05-09T12:31:30.167Z,7.40
2019-05-09T12:34:03.712Z,8.85
2019-05-09T12:36:35.706Z,9.55
2019-05-09T12:39:08.725Z,8.40
2019-05-09T12:41:42.087Z,7.35
2019-05-09T12:44:13.183Z,7.40
2019-05-09T12:46:45.547Z,6.97
2019-05-09T12:49:22.209Z,7.20
2019-05-09T12:51:58.861Z,8.10
2019-05-09T12:54:34.516Z,6.47
2019-05-09T12:57:07.926Z,7.05
2019-05-09T12:59:48.573Z,7.35
2019-05-09T13:02:11.355Z,7.60
2019-05-09T13:04:42.408Z,6.97
2019-05-09T13:07:14.309Z,7.40
2019-05-09T13:09:52.238Z,7.15
2019-05-09T13:12:43.079Z,6.97
2019-05-09T13:15:21.477Z,7.28
2019-05-09T13:17:52.595Z,7.50
2019-05-09T13:20:23.662Z,7.42
2019-05-09T13:22:58.847Z,7.45
2019-05-09T13:25:30.294Z,7.28
2019-05-09T13:28:01.776Z,6.58
2019-05-09T13:30:34.521Z,7.05
2019-05-09T13:33:10.562Z,6.78
2019-05-09T13:35:41.416Z,6.58
2019-05-09T13:38:13.406Z,7.15
2019-05-09T13:40:53.449Z,7.67
2019-05-09T13:43:20.447Z,7.78
2019-05-09T13:45:51.583Z,6.85
2019-05-09T13:48:37.837Z,6.53
2019-05-09T13:51:00.814Z,6.03
2019-05-09T13:53:33.579Z,6.67
2019-05-09T13:56:04.691Z,7.33
2019-05-09T13:58:38.286Z,7.58
2019-05-09T14:01:09.832Z,8.15
2019-05-09T14:03:40.884Z,6.55
2019-05-09T14:06:11.984Z,6.97
2019-05-09T14:08:43.934Z,6.78
2019-05-09T14:11:19.220Z,6.70
2019-05-09T14:13:48.734Z,6.65
2019-05-09T14:16:28.698Z,6.87
2019-05-09T14:19:23.972Z,6.85
2019-05-09T14:21:32.922Z,6.78
2019-05-09T14:24:15.178Z,7.03
2019-05-09T14:26:44.005Z,7.05
2019-05-09T14:29:20.123Z,8.10
2019-05-09T14:31:51.842Z,6.97
2019-05-09T14:34:22.066Z,7.42
2019-05-09T14:36:53.163Z,7.22
2019-05-09T14:39:27.678Z,7.85
2019-05-09T14:41:58.926Z,7.90
2019-05-09T14:44:31.524Z,7.40
2019-05-09T14:47:02.636Z,8.68
2019-05-09T14:49:43.287Z,7.17
2019-05-09T14:52:08.108Z,7.10
2019-05-09T14:54:42.613Z,7.10
2019-05-09T14:57:17.374Z,6.55
2019-05-09T14:59:48.041Z,6.60
2019-05-09T15:02:19.092Z,6.53
2019-05-09T15:04:50.186Z,7.08
2019-05-09T15:07:21.341Z,8.90
2019-05-09T15:09:54.025Z,8.85
2019-05-09T15:12:28.502Z,7.10
2019-05-09T15:14:59.889Z,7.65
2019-05-09T15:17:32.608Z,7.40
2019-05-09T15:20:04.718Z,7.62
2019-05-09T15:22:38.719Z,7.90
2019-05-09T15:25:12.056Z,8.55
2019-05-09T15:27:44.271Z,8.23
2019-05-09T15:30:18.859Z,7.72
2019-05-09T15:32:51.807Z,7.65
2019-05-09T15:35:22.577Z,7.05
2019-05-09T15:37:53.639Z,8.48
2019-05-09T15:40:28.198Z,17.30
2019-05-09T15:43:04.018Z,9.65
2019-05-09T15:45:40.896Z,6.87
2019-05-09T15:48:09.531Z,7.60
2019-05-09T15:50:42.314Z,7.45
2019-05-09T15:53:13.541Z,7.75
2019-05-09T15:55:58.888Z,10.45
2019-05-09T15:58:31.575Z,8.45
2019-05-09T16:01:04.371Z,7.28
2019-05-09T16:03:38.899Z,7.55
2019-05-09T16:06:12.428Z,11.30
2019-05-09T16:08:43.534Z,15.05
2019-05-09T16:11:18.483Z,7.50
2019-05-09T16:13:49.757Z,8.48
2019-05-09T16:16:21.222Z,7.60
2019-05-09T16:18:52.274Z,14.13
2019-05-09T16:21:24.759Z,9.70
2019-05-09T16:23:59.978Z,9.33
2019-05-09T16:26:37.573Z,9.90
2019-05-09T16:29:05.369Z,7.87
2019-05-09T16:31:38.768Z,9.60
2019-05-09T16:34:12.760Z,9.95
2019-05-09T16:36:52.653Z,9.65
2019-05-09T16:39:20.452Z,10.70
2019-05-09T16:41:54.724Z,11.28
2019-05-09T16:44:25.867Z,10.68
2019-05-09T16:47:04.422Z,11.15
2019-05-09T16:49:32.476Z,18.27
2019-05-09T16:52:03.757Z,16.48
2019-05-09T16:54:38.623Z,12.73
2019-05-09T16:57:13.184Z,14.40
2019-05-09T16:59:47.764Z,13.85
2019-05-09T17:02:24.798Z,13.15
2019-05-09T17:05:02.696Z,20.10
2019-05-09T17:07:34.907Z,22.50
2019-05-09T17:13:49.782Z,16.32
2019-05-09T17:16:28.487Z,17.87
2019-05-09T17:19:06.037Z,15.43
2019-05-09T17:21:50.663Z,11.55
2019-05-09T17:28:13.037Z,27.22
2019-05-09T17:30:49.341Z,20.88
2019-05-09T17:33:21.231Z,12.88
2019-05-09T17:35:57.819Z,13.83
2019-05-09T17:38:32.662Z,16.00
2019-05-09T17:41:08.452Z,15.23
2019-05-09T17:43:39.727Z,15.48
2019-05-09T17:46:12.730Z,19.12
2019-05-09T17:48:49.075Z,25.43
2019-05-09T17:51:33.058Z,20.80
2019-05-09T17:53:58.563Z,23.73
2019-05-09T17:56:50.028Z,19.62
2019-05-09T17:59:11.481Z,19.30
2019-05-09T18:01:48.246Z,18.35
2019-05-09T18:04:22.414Z,30.62
2019-05-09T18:07:00.801Z,29.15
2019-05-09T18:09:42.276Z,34.05
2019-05-09T18:12:22.520Z,35.58
2019-05-09T18:14:55.340Z,32.95
2019-05-09T18:17:40.544Z,20.17
2019-05-09T18:20:17.415Z,34.98
2019-05-09T18:22:52.195Z,32.73
2019-05-09T18:29:06.832Z,22.37
2019-05-09T18:31:41.800Z,38.98
2019-05-09T18:34:18.484Z,40.33
2019-05-09T18:36:58.611Z,31.30
2019-05-09T18:39:30.870Z,21.87
2019-05-09T18:42:05.014Z,35.20
2019-05-09T18:44:39.972Z,38.73
2019-05-09T18:47:13.315Z,38.60
2019-05-09T18:49:56.450Z,46.18
2019-05-09T18:52:25.995Z,54.08
2019-05-09T18:55:01.214Z,57.15
2019-05-09T18:57:43.939Z,37.78
2019-05-09T19:00:46.066Z,34.67
2019-05-09T19:03:16.705Z,33.00
2019-05-09T19:07:19.940Z,28.07
2019-05-09T19:08:42.738Z,26.27
2019-05-09T19:11:16.690Z,41.25
2019-05-09T19:14:04.437Z,58.20
2019-05-09T19:19:32.500Z,33.63
2019-05-09T19:25:09.802Z,39.25
2019-05-09T19:27:58.046Z,57.05
2019-05-09T19:33:09.786Z,32.05
2019-05-09T19:35:46.143Z,34.78
2019-05-09T19:38:29.672Z,26.82
2019-05-09T19:43:31.003Z,37.47
2019-05-09T19:46:03.778Z,34.05
2019-05-09T19:48:52.472Z,35.50
2019-05-09T19:51:25.890Z,32.20
2019-05-09T19:53:53.642Z,31.90
2019-05-09T19:56:36.380Z,35.70
2019-05-09T19:59:20.299Z,37.97
2019-05-09T20:02:13.872Z,38.13
2019-05-09T20:04:26.800Z,38.53
2019-05-09T20:07:07.914Z,29.63
2019-05-09T20:09:58.790Z,29.17
2019-05-09T20:12:37.541Z,34.10
2019-05-09T20:15:42.749Z,36.70
2019-05-09T20:17:47.753Z,44.75
2019-05-09T20:20:26.104Z,25.47
2019-05-09T20:23:07.761Z,23.13
2019-05-09T20:29:19.754Z,24.20
2019-05-09T20:31:59.527Z,27.83
2019-05-09T20:34:35.753Z,34.73
2019-05-09T20:37:26.362Z,40.50
2019-05-09T20:39:46.182Z,50.03
2019-05-09T20:42:36.449Z,43.00
2019-05-09T20:44:58.556Z,40.40
2019-05-09T20:47:31.369Z,41.20
2019-05-09T20:50:07.292Z,50.15
2019-05-09T20:52:45.992Z,46.83
2019-05-09T20:55:27.694Z,34.58
2019-05-09T20:58:12.847Z,31.53
2019-05-09T21:02:08.780Z,26.93
2019-05-09T21:03:22.764Z,28.30
2019-05-09T21:05:58.348Z,25.57
2019-05-09T21:08:38.004Z,26.67
2019-05-09T21:11:08.750Z,29.70
2019-05-09T21:13:48.966Z,29.10
2019-05-09T21:19:04.517Z,29.03
2019-05-09T21:19:39.024Z,29.97
2019-05-09T21:21:43.003Z,28.60
2019-05-09T21:24:19.210Z,29.53
2019-05-09T21:26:53.581Z,31.07
2019-05-09T21:29:29.706Z,31.17
2019-05-09T21:32:09.446Z,33.23
2019-05-09T21:49:26.724Z,32.60
2019-05-09T21:51:57.949Z,35.30
2019-05-09T21:54:30.367Z,42.73
2019-05-09T22:51:36.312Z,51.60
